sensor_id;sensor_type;location;lat;lon;timestamp;pressure;altitude;pressure_sealevel;temperature;humidity
73941;BME280;62294;48.554;10.202;2023-11-21T00:01:03;95533.22;;;5.83;100.00
73941;BME280;62294;48.554;10.202;2023-11-21T00:03:31;95529.41;;;5.85;100.00
73941;BME280;62294;48.554;10.202;2023-11-21T00:05:58;95534.47;;;5.87;100.00
73941;BME280;62294;48.554;10.202;2023-11-21T00:08:24;95526.59;;;5.93;100.00
73941;BME280;62294;48.554;10.202;2023-11-21T00:10:51;95532.03;;;6.05;100.00
73941;BME280;62294;48.554;10.202;2023-11-21T00:13:18;95533.88;;;6.11;100.00
73941;BME280;62294;48.554;10.202;2023-11-21T00:15:44;95538.72;;;6.14;100.00
73941;BME280;62294;48.554;10.202;2023-11-21T00:18:11;95538.94;;;6.12;100.00
73941;BME280;62294;48.554;10.202;2023-11-21T00:20:38;95538.94;;;6.06;100.00
73941;BME280;62294;48.554;10.202;2023-11-21T00:23:04;95537.13;;;6.00;100.00
73941;BME280;62294;48.554;10.202;2023-11-21T00:25:31;95529.00;;;5.95;100.00
73941;BME280;62294;48.554;10.202;2023-11-21T00:27:58;95540.16;;;5.84;100.00
73941;BME280;62294;48.554;10.202;2023-11-21T00:30:25;95533.84;;;5.65;100.00
73941;BME280;62294;48.554;10.202;2023-11-21T00:32:51;95528.56;;;5.58;100.00
73941;BME280;62294;48.554;10.202;2023-11-21T00:35:18;95513.13;;;5.62;100.00
73941;BME280;62294;48.554;10.202;2023-11-21T00:37:45;95510.50;;;5.62;100.00
73941;BME280;62294;48.554;10.202;2023-11-21T00:40:12;95510.88;;;5.52;100.00
73941;BME280;62294;48.554;10.202;2023-11-21T00:42:39;95502.97;;;5.46;100.00
73941;BME280;62294;48.554;10.202;2023-11-21T00:45:06;95509.47;;;5.50;100.00
73941;BME280;62294;48.554;10.202;2023-11-21T00:47:33;95510.28;;;5.50;100.00
73941;BME280;62294;48.554;10.202;2023-11-21T00:50:00;95509.88;;;5.53;100.00
73941;BME280;62294;48.554;10.202;2023-11-21T00:52:27;95515.16;;;5.53;100.00
73941;BME280;62294;48.554;10.202;2023-11-21T00:54:53;95521.84;;;5.56;100.00
73941;BME280;62294;48.554;10.202;2023-11-21T00:57:20;95520.66;;;5.58;100.00
73941;BME280;62294;48.554;10.202;2023-11-21T00:59:47;95522.84;;;5.61;100.00
73941;BME280;62294;48.554;10.202;2023-11-21T01:02:13;95524.50;;;5.62;100.00
73941;BME280;62294;48.554;10.202;2023-11-21T01:04:40;95524.50;;;5.62;100.00
73941;BME280;62294;48.554;10.202;2023-11-21T01:07:07;95526.53;;;5.60;100.00
73941;BME280;62294;48.554;10.202;2023-11-21T01:09:33;95526.53;;;5.60;100.00
73941;BME280;62294;48.554;10.202;2023-11-21T01:12:00;95521.03;;;5.55;100.00
73941;BME280;62294;48.554;10.202;2023-11-21T01:14:27;95516.38;;;5.51;100.00
73941;BME280;62294;48.554;10.202;2023-11-21T01:16:54;95522.47;;;5.51;100.00
73941;BME280;62294;48.554;10.202;2023-11-21T01:19:21;95517.56;;;5.48;100.00
73941;BME280;62294;48.554;10.202;2023-11-21T01:21:47;95519.22;;;5.49;100.00
73941;BME280;62294;48.554;10.202;2023-11-21T01:24:14;95513.53;;;5.52;100.00
73941;BME280;62294;48.554;10.202;2023-11-21T01:26:41;95518.63;;;5.54;100.00
73941;BME280;62294;48.554;10.202;2023-11-21T01:29:07;95517.19;;;5.51;100.00
73941;BME280;62294;48.554;10.202;2023-11-21T01:31:34;95512.31;;;5.55;100.00
73941;BME280;62294;48.554;10.202;2023-11-21T01:34:00;95517.41;;;5.56;100.00
73941;BME280;62294;48.554;10.202;2023-11-21T01:36:31;95512.91;;;5.57;100.00
73941;BME280;62294;48.554;10.202;2023-11-21T01:39:02;95523.28;;;5.58;100.00
73941;BME280;62294;48.554;10.202;2023-11-21T01:41:34;95515.97;;;5.60;100.00
73941;BME280;62294;48.554;10.202;2023-11-21T01:44:01;95523.06;;;5.66;100.00
73941;BME280;62294;48.554;10.202;2023-11-21T01:46:28;95515.16;;;5.66;100.00
73941;BME280;62294;48.554;10.202;2023-11-21T01:48:56;95522.06;;;5.67;100.00
73941;BME280;62294;48.554;10.202;2023-11-21T01:51:22;95511.53;;;5.67;100.00
73941;BME280;62294;48.554;10.202;2023-11-21T01:53:50;95501.19;;;5.72;100.00
73941;BME280;62294;48.554;10.202;2023-11-21T01:56:17;95513.13;;;5.68;100.00
73941;BME280;62294;48.554;10.202;2023-11-21T01:58:44;95508.69;;;5.62;100.00
73941;BME280;62294;48.554;10.202;2023-11-21T02:01:10;95504.00;;;5.58;100.00
73941;BME280;62294;48.554;10.202;2023-11-21T02:03:37;95509.06;;;5.59;100.00
73941;BME280;62294;48.554;10.202;2023-11-21T02:06:05;95507.47;;;5.65;100.00
73941;BME280;62294;48.554;10.202;2023-11-21T02:08:31;95512.31;;;5.61;100.00
73941;BME280;62294;48.554;10.202;2023-11-21T02:10:58;95510.31;;;5.63;100.00
73941;BME280;62294;48.554;10.202;2023-11-21T02:13:25;95515.59;;;5.63;100.00
73941;BME280;62294;48.554;10.202;2023-11-21T02:15:51;95519.00;;;5.70;100.00
73941;BME280;62294;48.554;10.202;2023-11-21T02:18:21;95513.97;;;5.75;100.00
73941;BME280;62294;48.554;10.202;2023-11-21T02:20:48;95517.19;;;5.71;100.00
73941;BME280;62294;48.554;10.202;2023-11-21T02:23:15;95515.16;;;5.66;100.00
73941;BME280;62294;48.554;10.202;2023-11-21T02:25:42;95503.41;;;5.62;100.00
73941;BME280;62294;48.554;10.202;2023-11-21T02:28:09;95511.91;;;5.58;100.00
73941;BME280;62294;48.554;10.202;2023-11-21T02:30:39;95507.47;;;5.58;100.00
73941;BME280;62294;48.554;10.202;2023-11-21T02:33:06;95506.44;;;5.53;100.00
73941;BME280;62294;48.554;10.202;2023-11-21T02:35:33;95507.84;;;5.49;100.00
73941;BME280;62294;48.554;10.202;2023-11-21T02:38:01;95505.22;;;5.55;100.00
73941;BME280;62294;48.554;10.202;2023-11-21T02:40:29;95507.03;;;5.48;100.00
73941;BME280;62294;48.554;10.202;2023-11-21T02:42:56;95501.16;;;5.40;100.00
73941;BME280;62294;48.554;10.202;2023-11-21T02:45:26;95507.84;;;5.42;100.00
73941;BME280;62294;48.554;10.202;2023-11-21T02:47:52;95509.88;;;5.40;100.00
73941;BME280;62294;48.554;10.202;2023-11-21T02:50:25;95500.53;;;5.31;100.00
73941;BME280;62294;48.554;10.202;2023-11-21T02:52:51;95506.19;;;5.28;100.00
73941;BME280;62294;48.554;10.202;2023-11-21T02:55:18;95498.50;;;5.20;100.00
73941;BME280;62294;48.554;10.202;2023-11-21T02:57:45;95496.41;;;5.09;100.00
73941;BME280;62294;48.554;10.202;2023-11-21T03:00:11;95501.06;;;5.07;100.00
73941;BME280;62294;48.554;10.202;2023-11-21T03:02:41;95501.88;;;5.01;100.00
73941;BME280;62294;48.554;10.202;2023-11-21T03:05:09;95490.28;;;4.95;100.00
73941;BME280;62294;48.554;10.202;2023-11-21T03:07:38;95499.97;;;4.88;100.00
73941;BME280;62294;48.554;10.202;2023-11-21T03:10:07;95499.38;;;4.93;100.00
73941;BME280;62294;48.554;10.202;2023-11-21T03:12:38;95507.72;;;4.90;100.00
73941;BME280;62294;48.554;10.202;2023-11-21T03:15:06;95505.91;;;4.97;100.00
73941;BME280;62294;48.554;10.202;2023-11-21T03:17:33;95505.72;;;5.05;100.00
73941;BME280;62294;48.554;10.202;2023-11-21T03:20:04;95508.97;;;5.07;100.00
73941;BME280;62294;48.554;10.202;2023-11-21T03:22:31;95507.00;;;5.16;100.00
73941;BME280;62294;48.554;10.202;2023-11-21T03:24:57;95506.38;;;5.20;100.00
73941;BME280;62294;48.554;10.202;2023-11-21T03:27:25;95507.38;;;5.19;100.00
73941;BME280;62294;48.554;10.202;2023-11-21T03:29:51;95498.88;;;5.17;100.00
73941;BME280;62294;48.554;10.202;2023-11-21T03:32:18;95495.63;;;5.15;100.00
73941;BME280;62294;48.554;10.202;2023-11-21T03:34:56;95499.66;;;5.11;100.00
73941;BME280;62294;48.554;10.202;2023-11-21T03:37:25;95501.28;;;5.12;100.00
73941;BME280;62294;48.554;10.202;2023-11-21T03:39:57;95493.19;;;5.14;100.00
73941;BME280;62294;48.554;10.202;2023-11-21T03:42:24;95499.88;;;5.16;100.00
73941;BME280;62294;48.554;10.202;2023-11-21T03:44:54;95502.50;;;5.16;100.00
73941;BME280;62294;48.554;10.202;2023-11-21T03:47:20;95494.38;;;5.11;100.00
73941;BME280;62294;48.554;10.202;2023-11-21T03:49:47;95497.81;;;5.05;100.00
73941;BME280;62294;48.554;10.202;2023-11-21T03:52:14;95507.75;;;5.03;100.00
73941;BME280;62294;48.554;10.202;2023-11-21T03:54:41;95512.59;;;4.99;100.00
73941;BME280;62294;48.554;10.202;2023-11-21T03:57:07;95507.75;;;5.03;100.00
73941;BME280;62294;48.554;10.202;2023-11-21T03:59:34;95505.34;;;5.08;100.00
73941;BME280;62294;48.554;10.202;2023-11-21T04:02:01;95515.88;;;5.08;100.00
73941;BME280;62294;48.554;10.202;2023-11-21T04:04:27;95506.56;;;5.12;100.00
73941;BME280;62294;48.554;10.202;2023-11-21T04:06:54;95508.81;;;5.15;100.00
73941;BME280;62294;48.554;10.202;2023-11-21T04:09:20;95507.78;;;5.16;100.00
73941;BME280;62294;48.554;10.202;2023-11-21T04:11:47;95501.28;;;5.19;100.00
73941;BME280;62294;48.554;10.202;2023-11-21T04:14:14;95509.22;;;5.25;100.00
73941;BME280;62294;48.554;10.202;2023-11-21T04:16:41;95517.94;;;5.32;100.00
73941;BME280;62294;48.554;10.202;2023-11-21T04:19:08;95504.16;;;5.30;100.00
73941;BME280;62294;48.554;10.202;2023-11-21T04:21:37;95504.16;;;5.30;100.00
73941;BME280;62294;48.554;10.202;2023-11-21T04:24:05;95513.50;;;5.39;100.00
73941;BME280;62294;48.554;10.202;2023-11-21T04:26:32;95501.72;;;5.22;100.00
73941;BME280;62294;48.554;10.202;2023-11-21T04:28:59;95507.78;;;5.16;100.00
73941;BME280;62294;48.554;10.202;2023-11-21T04:31:25;95504.53;;;5.14;100.00
73941;BME280;62294;48.554;10.202;2023-11-21T04:33:52;95506.16;;;5.15;100.00
73941;BME280;62294;48.554;10.202;2023-11-21T04:36:19;95519.56;;;5.20;100.00
73941;BME280;62294;48.554;10.202;2023-11-21T04:38:46;95510.41;;;5.23;100.00
73941;BME280;62294;48.554;10.202;2023-11-21T04:41:12;95518.31;;;5.16;100.00
73941;BME280;62294;48.554;10.202;2023-11-21T04:43:39;95516.72;;;5.28;100.00
73941;BME280;62294;48.554;10.202;2023-11-21T04:46:06;95517.78;;;5.34;100.00
73941;BME280;62294;48.554;10.202;2023-11-21T04:48:33;95517.56;;;5.35;100.00
73941;BME280;62294;48.554;10.202;2023-11-21T04:50:59;95513.72;;;5.31;100.00
73941;BME280;62294;48.554;10.202;2023-11-21T04:53:26;95514.31;;;5.33;100.00
73941;BME280;62294;48.554;10.202;2023-11-21T04:55:52;95519.97;;;5.30;100.00
73941;BME280;62294;48.554;10.202;2023-11-21T04:58:19;95519.75;;;5.32;100.00
73941;BME280;62294;48.554;10.202;2023-11-21T05:00:47;95515.50;;;5.24;100.00
73941;BME280;62294;48.554;10.202;2023-11-21T05:03:14;95517.53;;;5.16;100.00
73941;BME280;62294;48.554;10.202;2023-11-21T05:05:40;95516.50;;;5.17;100.00
73941;BME280;62294;48.554;10.202;2023-11-21T05:08:07;95519.34;;;5.15;100.00
73941;BME280;62294;48.554;10.202;2023-11-21T05:10:34;95531.25;;;5.11;100.00
73941;BME280;62294;48.554;10.202;2023-11-21T05:13:04;95527.63;;;5.12;100.00
73941;BME280;62294;48.554;10.202;2023-11-21T05:15:36;95541.78;;;5.11;100.00
73941;BME280;62294;48.554;10.202;2023-11-21T05:18:03;95551.94;;;5.14;100.00
73941;BME280;62294;48.554;10.202;2023-11-21T05:20:32;95537.78;;;5.15;100.00
73941;BME280;62294;48.554;10.202;2023-11-21T05:22:59;95541.41;;;5.14;100.00
73941;BME280;62294;48.554;10.202;2023-11-21T05:25:26;95545.44;;;5.10;100.00
73941;BME280;62294;48.554;10.202;2023-11-21T05:27:52;95541.78;;;5.11;100.00
73941;BME280;62294;48.554;10.202;2023-11-21T05:30:21;95540.56;;;5.07;100.00
73941;BME280;62294;48.554;10.202;2023-11-21T05:32:48;95541.16;;;5.02;100.00
73941;BME280;62294;48.554;10.202;2023-11-21T05:35:16;95537.09;;;5.00;100.00
73941;BME280;62294;48.554;10.202;2023-11-21T05:37:44;95539.31;;;4.96;100.00
73941;BME280;62294;48.554;10.202;2023-11-21T05:40:12;95537.72;;;5.02;100.00
73941;BME280;62294;48.554;10.202;2023-11-21T05:42:40;95541.34;;;4.94;100.00
73941;BME280;62294;48.554;10.202;2023-11-21T05:45:07;95534.06;;;4.96;100.00
73941;BME280;62294;48.554;10.202;2023-11-21T05:47:40;95525.53;;;4.88;100.00
73941;BME280;62294;48.554;10.202;2023-11-21T05:50:08;95531.56;;;4.88;100.00
73941;BME280;62294;48.554;10.202;2023-11-21T05:52:38;95531.97;;;4.79;100.00
73941;BME280;62294;48.554;10.202;2023-11-21T05:55:06;95539.28;;;4.83;100.00
73941;BME280;62294;48.554;10.202;2023-11-21T05:57:38;95529.16;;;4.87;100.00
73941;BME280;62294;48.554;10.202;2023-11-21T06:00:07;95538.00;;;4.73;100.00
73941;BME280;62294;48.554;10.202;2023-11-21T06:02:53;95531.56;;;4.82;100.00
73941;BME280;62294;48.554;10.202;2023-11-21T06:05:24;95536.06;;;4.88;100.00
73941;BME280;62294;48.554;10.202;2023-11-21T06:07:53;95540.53;;;4.94;100.00
73941;BME280;62294;48.554;10.202;2023-11-21T06:10:21;95552.28;;;4.98;100.00
73941;BME280;62294;48.554;10.202;2023-11-21T06:12:48;95553.34;;;5.10;100.00
73941;BME280;62294;48.554;10.202;2023-11-21T06:15:14;95548.94;;;5.24;100.00
73941;BME280;62294;48.554;10.202;2023-11-21T06:17:42;95544.28;;;5.19;100.00
73941;BME280;62294;48.554;10.202;2023-11-21T06:20:10;95547.91;;;5.18;100.00
73941;BME280;62294;48.554;10.202;2023-11-21T06:22:42;95553.59;;;5.22;100.00
73941;BME280;62294;48.554;10.202;2023-11-21T06:25:10;95548.72;;;5.19;100.00
73941;BME280;62294;48.554;10.202;2023-11-21T06:30:08;95554.56;;;5.14;100.00
73941;BME280;62294;48.554;10.202;2023-11-21T06:32:39;95554.53;;;5.01;100.00
73941;BME280;62294;48.554;10.202;2023-11-21T06:35:08;95552.28;;;4.98;100.00
73941;BME280;62294;48.554;10.202;2023-11-21T06:37:36;95559.81;;;5.01;100.00
73941;BME280;62294;48.554;10.202;2023-11-21T06:40:04;95554.41;;;5.16;100.00
73941;BME280;62294;48.554;10.202;2023-11-21T06:42:31;95555.03;;;5.24;100.00
73941;BME280;62294;48.554;10.202;2023-11-21T06:44:58;95559.28;;;5.25;100.00
73941;BME280;62294;48.554;10.202;2023-11-21T06:47:25;95568.25;;;5.37;100.00
73941;BME280;62294;48.554;10.202;2023-11-21T06:49:52;95564.78;;;5.43;100.00
73941;BME280;62294;48.554;10.202;2023-11-21T06:52:20;95568.25;;;5.50;100.00
73941;BME280;62294;48.554;10.202;2023-11-21T06:54:47;95562.59;;;5.53;100.00
73941;BME280;62294;48.554;10.202;2023-11-21T06:57:14;95566.84;;;5.48;100.00
73941;BME280;62294;48.554;10.202;2023-11-21T06:59:40;95580.84;;;5.48;100.00
73941;BME280;62294;48.554;10.202;2023-11-21T07:02:07;95580.81;;;5.42;100.00
73941;BME280;62294;48.554;10.202;2023-11-21T07:04:34;95581.88;;;5.60;100.00
73941;BME280;62294;48.554;10.202;2023-11-21T07:07:03;95580.84;;;5.61;100.00
73941;BME280;62294;48.554;10.202;2023-11-21T07:09:30;95586.94;;;5.62;100.00
73941;BME280;62294;48.554;10.202;2023-11-21T07:11:57;95579.47;;;5.65;100.00
73941;BME280;62294;48.554;10.202;2023-11-21T07:14:24;95589.41;;;5.77;100.00
73941;BME280;62294;48.554;10.202;2023-11-21T07:16:51;95597.13;;;5.71;100.00
73941;BME280;62294;48.554;10.202;2023-11-21T07:19:20;95596.56;;;5.89;100.00
73941;BME280;62294;48.554;10.202;2023-11-21T07:21:48;95595.91;;;5.74;100.00
73941;BME280;62294;48.554;10.202;2023-11-21T07:24:18;95599.16;;;5.83;100.00
73941;BME280;62294;48.554;10.202;2023-11-21T07:26:44;95601.38;;;5.72;100.00
73941;BME280;62294;48.554;10.202;2023-11-21T07:29:10;95601.16;;;5.67;100.00
73941;BME280;62294;48.554;10.202;2023-11-21T07:31:38;95610.88;;;5.54;100.00
73941;BME280;62294;48.554;10.202;2023-11-21T07:34:04;95609.69;;;5.63;100.00
73941;BME280;62294;48.554;10.202;2023-11-21T07:36:31;95619.78;;;5.59;100.00
73941;BME280;62294;48.554;10.202;2023-11-21T07:38:58;95609.19;;;5.40;100.00
73941;BME280;62294;48.554;10.202;2023-11-21T07:41:24;95611.97;;;5.32;100.00
73941;BME280;62294;48.554;10.202;2023-11-21T07:43:57;95621.75;;;5.31;100.00
73941;BME280;62294;48.554;10.202;2023-11-21T07:46:24;95617.69;;;5.35;100.00
73941;BME280;62294;48.554;10.202;2023-11-21T07:48:53;95630.50;;;5.45;100.00
73941;BME280;62294;48.554;10.202;2023-11-21T07:51:19;95629.50;;;5.52;100.00
73941;BME280;62294;48.554;10.202;2023-11-21T07:53:46;95631.16;;;5.66;100.00
73941;BME280;62294;48.554;10.202;2023-11-21T07:56:12;95635.03;;;5.70;100.00
73941;BME280;62294;48.554;10.202;2023-11-21T07:58:39;95626.19;;;5.91;100.00
73941;BME280;62294;48.554;10.202;2023-11-21T08:01:06;95619.09;;;5.92;100.00
73941;BME280;62294;48.554;10.202;2023-11-21T08:03:33;95628.66;;;6.19;100.00
73941;BME280;62294;48.554;10.202;2023-11-21T08:06:00;95630.06;;;6.34;100.00
73941;BME280;62294;48.554;10.202;2023-11-21T08:08:26;95623.19;;;6.47;100.00
73941;BME280;62294;48.554;10.202;2023-11-21T08:10:53;95635.75;;;6.58;100.00
73941;BME280;62294;48.554;10.202;2023-11-21T08:15:53;95639.63;;;6.68;100.00
73941;BME280;62294;48.554;10.202;2023-11-21T08:18:20;95638.16;;;6.98;100.00
73941;BME280;62294;48.554;10.202;2023-11-21T08:20:47;95655.22;;;7.02;100.00
73941;BME280;62294;48.554;10.202;2023-11-21T08:23:15;95648.84;;;7.30;100.00
73941;BME280;62294;48.554;10.202;2023-11-21T08:25:45;95653.25;;;7.49;100.00
73941;BME280;62294;48.554;10.202;2023-11-21T08:28:12;95657.28;;;8.02;100.00
73941;BME280;62294;48.554;10.202;2023-11-21T08:30:40;95671.63;;;8.19;100.00
73941;BME280;62294;48.554;10.202;2023-11-21T08:33:08;95675.19;;;8.38;100.00
73941;BME280;62294;48.554;10.202;2023-11-21T08:35:35;95678.25;;;8.41;100.00
73941;BME280;62294;48.554;10.202;2023-11-21T08:38:03;95680.00;;;8.16;100.00
73941;BME280;62294;48.554;10.202;2023-11-21T08:40:30;95688.94;;;8.15;100.00
73941;BME280;62294;48.554;10.202;2023-11-21T08:42:57;95676.16;;;8.12;100.00
73941;BME280;62294;48.554;10.202;2023-11-21T08:45:25;95681.34;;;7.87;100.00
73941;BME280;62294;48.554;10.202;2023-11-21T08:47:54;95683.38;;;7.92;100.00
73941;BME280;62294;48.554;10.202;2023-11-21T08:50:21;95689.09;;;7.89;100.00
73941;BME280;62294;48.554;10.202;2023-11-21T08:52:48;95687.66;;;7.93;100.00
73941;BME280;62294;48.554;10.202;2023-11-21T08:55:15;95692.06;;;8.06;100.00
73941;BME280;62294;48.554;10.202;2023-11-21T08:57:44;95689.81;;;8.09;100.00
73941;BME280;62294;48.554;10.202;2023-11-21T09:00:11;95696.59;;;7.92;100.00
73941;BME280;62294;48.554;10.202;2023-11-21T09:02:39;95688.84;;;7.97;100.00
73941;BME280;62294;48.554;10.202;2023-11-21T09:05:09;95687.63;;;7.49;100.00
73941;BME280;62294;48.554;10.202;2023-11-21T09:07:37;95688.50;;;7.30;100.00
73941;BME280;62294;48.554;10.202;2023-11-21T09:10:04;95688.13;;;7.13;100.00
73941;BME280;62294;48.554;10.202;2023-11-21T09:12:34;95705.50;;;7.53;100.00
73941;BME280;62294;48.554;10.202;2023-11-21T09:15:05;95703.13;;;7.39;100.00
73941;BME280;62294;48.554;10.202;2023-11-21T09:17:33;95715.50;;;7.45;100.00
73941;BME280;62294;48.554;10.202;2023-11-21T09:20:05;95719.44;;;7.86;100.00
73941;BME280;62294;48.554;10.202;2023-11-21T09:22:38;95720.34;;;8.49;100.00
73941;BME280;62294;48.554;10.202;2023-11-21T09:25:05;95718.88;;;8.53;100.00
73941;BME280;62294;48.554;10.202;2023-11-21T09:27:31;95724.22;;;9.03;100.00
73941;BME280;62294;48.554;10.202;2023-11-21T09:29:58;95720.16;;;9.00;100.00
73941;BME280;62294;48.554;10.202;2023-11-21T09:32:24;95720.94;;;8.14;100.00
73941;BME280;62294;48.554;10.202;2023-11-21T09:34:51;95726.63;;;7.73;100.00
73941;BME280;62294;48.554;10.202;2023-11-21T09:37:18;95719.34;;;7.62;100.00
73941;BME280;62294;48.554;10.202;2023-11-21T09:39:45;95718.25;;;8.20;100.00
73941;BME280;62294;48.554;10.202;2023-11-21T09:45:18;95724.94;;;8.61;100.00
73941;BME280;62294;48.554;10.202;2023-11-21T09:47:48;95727.06;;;8.52;100.00
73941;BME280;62294;48.554;10.202;2023-11-21T09:50:17;95720.31;;;8.81;100.00
73941;BME280;62294;48.554;10.202;2023-11-21T09:55:21;95721.09;;;8.56;100.00
73941;BME280;62294;48.554;10.202;2023-11-21T09:57:48;95719.28;;;8.57;100.00
73941;BME280;62294;48.554;10.202;2023-11-21T10:00:18;95724.34;;;8.90;100.00
73941;BME280;62294;48.554;10.202;2023-11-21T10:02:47;95720.75;;;9.02;100.00
73941;BME280;62294;48.554;10.202;2023-11-21T10:05:14;95709.06;;;8.61;100.00
73941;BME280;62294;48.554;10.202;2023-11-21T10:07:42;95709.91;;;8.54;100.00
73941;BME280;62294;48.554;10.202;2023-11-21T10:10:11;95697.28;;;8.56;100.00
73941;BME280;62294;48.554;10.202;2023-11-21T10:12:40;95708.19;;;8.35;100.00
73941;BME280;62294;48.554;10.202;2023-11-21T10:15:10;95714.13;;;8.31;100.00
73941;BME280;62294;48.554;10.202;2023-11-21T10:17:38;95712.31;;;8.25;100.00
73941;BME280;62294;48.554;10.202;2023-11-21T10:20:11;95712.53;;;8.23;100.00
73941;BME280;62294;48.554;10.202;2023-11-21T10:22:40;95713.28;;;8.68;100.00
73941;BME280;62294;48.554;10.202;2023-11-21T10:25:10;95708.75;;;8.75;100.00
73941;BME280;62294;48.554;10.202;2023-11-21T10:27:37;95713.25;;;9.42;100.00
73941;BME280;62294;48.554;10.202;2023-11-21T10:30:07;95705.38;;;9.11;100.00
73941;BME280;62294;48.554;10.202;2023-11-21T10:32:44;95711.22;;;8.95;100.00
73941;BME280;62294;48.554;10.202;2023-11-21T10:35:11;95707.31;;;9.22;100.00
73941;BME280;62294;48.554;10.202;2023-11-21T10:37:40;95703.66;;;9.23;100.00
73941;BME280;62294;48.554;10.202;2023-11-21T10:40:08;95714.63;;;9.26;100.00
73941;BME280;62294;48.554;10.202;2023-11-21T10:42:40;95715.66;;;10.16;100.00
73941;BME280;62294;48.554;10.202;2023-11-21T10:45:08;95712.31;;;10.80;100.00
73941;BME280;62294;48.554;10.202;2023-11-21T10:47:42;95714.81;;;10.34;100.00
73941;BME280;62294;48.554;10.202;2023-11-21T10:50:10;95718.91;;;9.46;100.00
73941;BME280;62294;48.554;10.202;2023-11-21T10:52:39;95721.91;;;9.31;100.00
73941;BME280;62294;48.554;10.202;2023-11-21T10:55:20;95723.38;;;9.27;100.00
73941;BME280;62294;48.554;10.202;2023-11-21T10:57:49;95713.75;;;8.90;100.00
73941;BME280;62294;48.554;10.202;2023-11-21T11:00:18;95709.44;;;8.64;100.00
73941;BME280;62294;48.554;10.202;2023-11-21T11:02:53;95709.72;;;8.81;100.00
73941;BME280;62294;48.554;10.202;2023-11-21T11:05:23;95712.16;;;8.82;100.00
73941;BME280;62294;48.554;10.202;2023-11-21T11:07:58;95714.09;;;8.69;100.00
73941;BME280;62294;48.554;10.202;2023-11-21T11:10:29;95709.34;;;8.77;100.00
73941;BME280;62294;48.554;10.202;2023-11-21T11:12:57;95721.41;;;8.98;100.00
73941;BME280;62294;48.554;10.202;2023-11-21T11:15:25;95712.84;;;9.20;100.00
73941;BME280;62294;48.554;10.202;2023-11-21T11:17:52;95715.41;;;9.09;100.00
73941;BME280;62294;48.554;10.202;2023-11-21T11:20:32;95711.50;;;9.11;100.00
73941;BME280;62294;48.554;10.202;2023-11-21T11:23:11;95712.63;;;9.22;100.00
73941;BME280;62294;48.554;10.202;2023-11-21T11:28:27;95712.56;;;9.28;100.00
73941;BME280;62294;48.554;10.202;2023-11-21T11:31:14;95711.31;;;9.31;100.00
73941;BME280;62294;48.554;10.202;2023-11-21T11:34:00;95716.03;;;9.04;100.00
73941;BME280;62294;48.554;10.202;2023-11-21T11:39:28;95705.03;;;8.83;100.00
73941;BME280;62294;48.554;10.202;2023-11-21T11:41:56;95712.16;;;8.82;100.00
73941;BME280;62294;48.554;10.202;2023-11-21T11:47:28;95722.59;;;9.02;100.00
73941;BME280;62294;48.554;10.202;2023-11-21T11:50:09;95724.56;;;9.31;100.00
73941;BME280;62294;48.554;10.202;2023-11-21T11:52:47;95725.59;;;9.30;100.00
73941;BME280;62294;48.554;10.202;2023-11-21T11:55:16;95717.06;;;9.28;100.00
73941;BME280;62294;48.554;10.202;2023-11-21T11:57:50;95720.91;;;9.50;100.00
73941;BME280;62294;48.554;10.202;2023-11-21T12:00:34;95721.72;;;9.51;100.00
73941;BME280;62294;48.554;10.202;2023-11-21T12:03:05;95724.22;;;9.82;100.00
73941;BME280;62294;48.554;10.202;2023-11-21T12:05:35;95730.25;;;10.07;100.00
73941;BME280;62294;48.554;10.202;2023-11-21T12:08:06;95742.53;;;10.26;100.00
73941;BME280;62294;48.554;10.202;2023-11-21T12:10:35;95735.03;;;10.35;100.00
73941;BME280;62294;48.554;10.202;2023-11-21T12:13:09;95730.63;;;10.11;100.00
73941;BME280;62294;48.554;10.202;2023-11-21T12:15:37;95730.59;;;9.99;100.00
73941;BME280;62294;48.554;10.202;2023-11-21T12:18:05;95732.09;;;10.07;100.00
73941;BME280;62294;48.554;10.202;2023-11-21T12:20:33;95723.94;;;10.08;100.00
73941;BME280;62294;48.554;10.202;2023-11-21T12:23:15;95723.34;;;10.06;100.00
73941;BME280;62294;48.554;10.202;2023-11-21T12:25:43;95725.84;;;10.01;100.00
73941;BME280;62294;48.554;10.202;2023-11-21T12:28:10;95723.41;;;9.81;100.00
73941;BME280;62294;48.554;10.202;2023-11-21T12:30:38;95734.78;;;9.70;100.00
73941;BME280;62294;48.554;10.202;2023-11-21T12:33:05;95728.72;;;9.81;100.00
73941;BME280;62294;48.554;10.202;2023-11-21T12:35:34;95726.44;;;9.49;100.00
73941;BME280;62294;48.554;10.202;2023-11-21T12:38:02;95731.84;;;9.60;100.00
73941;BME280;62294;48.554;10.202;2023-11-21T12:40:29;95734.13;;;9.75;100.00
73941;BME280;62294;48.554;10.202;2023-11-21T12:42:57;95725.78;;;9.89;100.00
73941;BME280;62294;48.554;10.202;2023-11-21T12:45:26;95729.03;;;9.91;100.00
73941;BME280;62294;48.554;10.202;2023-11-21T12:48:03;95722.63;;;9.81;100.00
73941;BME280;62294;48.554;10.202;2023-11-21T12:50:34;95727.72;;;9.64;100.00
73941;BME280;62294;48.554;10.202;2023-11-21T12:53:05;95728.97;;;9.62;100.00
73941;BME280;62294;48.554;10.202;2023-11-21T12:55:33;95728.81;;;9.57;100.00
73941;BME280;62294;48.554;10.202;2023-11-21T12:58:01;95739.72;;;9.49;100.00
73941;BME280;62294;48.554;10.202;2023-11-21T13:00:47;95731.78;;;9.24;100.00
73941;BME280;62294;48.554;10.202;2023-11-21T13:03:17;95739.78;;;9.42;100.00
73941;BME280;62294;48.554;10.202;2023-11-21T13:05:47;95745.69;;;9.19;100.00
73941;BME280;62294;48.554;10.202;2023-11-21T13:08:17;95745.91;;;9.18;100.00
73941;BME280;62294;48.554;10.202;2023-11-21T13:10:53;95753.91;;;9.11;100.00
73941;BME280;62294;48.554;10.202;2023-11-21T13:13:21;95747.81;;;9.11;100.00
73941;BME280;62294;48.554;10.202;2023-11-21T13:15:52;95754.03;;;9.23;100.00